sensor_id;sensor_type;location;lat;lon;timestamp;pressure;altitude;pressure_sealevel;temperature;humidity
11692;BME280;33659;42.672;23.354;2023-03-11T00:00:40;92571.09;;;12.09;86.31
11692;BME280;33659;42.672;23.354;2023-03-11T00:03:08;92571.84;;;12.06;86.52
11692;BME280;33659;42.672;23.354;2023-03-11T00:05:38;92598.06;;;11.88;87.25
11692;BME280;33659;42.672;23.354;2023-03-11T00:08:07;92570.44;;;11.69;86.03
11692;BME280;33659;42.672;23.354;2023-03-11T00:10:36;92579.09;;;11.37;85.31
11692;BME280;33659;42.672;23.354;2023-03-11T00:13:04;92580.94;;;11.51;85.32
11692;BME280;33659;42.672;23.354;2023-03-11T00:15:32;92569.72;;;11.51;84.75
11692;BME280;33659;42.672;23.354;2023-03-11T00:17:58;92572.75;;;11.35;83.99
11692;BME280;33659;42.672;23.354;2023-03-11T00:20:27;92570.16;;;11.21;84.37
11692;BME280;33659;42.672;23.354;2023-03-11T00:22:56;92541.06;;;11.04;85.03
11692;BME280;33659;42.672;23.354;2023-03-11T00:25:25;92557.84;;;11.18;84.43
11692;BME280;33659;42.672;23.354;2023-03-11T00:27:52;92558.94;;;11.20;84.08
11692;BME280;33659;42.672;23.354;2023-03-11T00:30:19;92563.81;;;11.04;84.07
11692;BME280;33659;42.672;23.354;2023-03-11T00:32:46;92574.25;;;11.07;84.04
11692;BME280;33659;42.672;23.354;2023-03-11T00:35:15;92569.41;;;11.13;83.63
11692;BME280;33659;42.672;23.354;2023-03-11T00:37:44;92569.78;;;11.22;83.66
11692;BME280;33659;42.672;23.354;2023-03-11T00:40:14;92568.66;;;11.30;83.51
11692;BME280;33659;42.672;23.354;2023-03-11T00:42:41;92563.03;;;11.39;82.45
11692;BME280;33659;42.672;23.354;2023-03-11T00:45:09;92574.22;;;11.43;81.85
11692;BME280;33659;42.672;23.354;2023-03-11T00:47:35;92562.66;;;11.41;81.92
11692;BME280;33659;42.672;23.354;2023-03-11T00:50:02;92554.06;;;11.36;81.82
11692;BME280;33659;42.672;23.354;2023-03-11T00:52:29;92545.13;;;11.37;81.73
11692;BME280;33659;42.672;23.354;2023-03-11T00:54:57;92539.50;;;11.39;81.48
11692;BME280;33659;42.672;23.354;2023-03-11T00:57:25;92533.53;;;11.46;81.18
11692;BME280;33659;42.672;23.354;2023-03-11T00:59:53;92531.28;;;11.51;81.39
11692;BME280;33659;42.672;23.354;2023-03-11T01:02:20;92525.63;;;11.63;81.30
11692;BME280;33659;42.672;23.354;2023-03-11T01:04:46;92530.88;;;11.63;81.56
11692;BME280;33659;42.672;23.354;2023-03-11T01:07:13;92529.34;;;11.73;81.93
11692;BME280;33659;42.672;23.354;2023-03-11T01:09:40;92515.50;;;11.83;81.97
11692;BME280;33659;42.672;23.354;2023-03-11T01:12:06;92515.09;;;11.96;81.49
11692;BME280;33659;42.672;23.354;2023-03-11T01:14:34;92514.31;;;12.02;80.99
11692;BME280;33659;42.672;23.354;2023-03-11T01:17:01;92504.94;;;12.08;80.27
11692;BME280;33659;42.672;23.354;2023-03-11T01:19:27;92503.81;;;12.13;80.16
11692;BME280;33659;42.672;23.354;2023-03-11T01:21:54;92493.34;;;12.13;79.79
11692;BME280;33659;42.672;23.354;2023-03-11T01:24:21;92490.34;;;12.14;79.29
11692;BME280;33659;42.672;23.354;2023-03-11T01:26:47;92484.34;;;12.14;79.08
11692;BME280;33659;42.672;23.354;2023-03-11T01:29:14;92483.59;;;12.17;78.90
11692;BME280;33659;42.672;23.354;2023-03-11T01:31:42;92481.31;;;12.23;79.41
11692;BME280;33659;42.672;23.354;2023-03-11T01:34:09;92471.97;;;12.25;79.55
11692;BME280;33659;42.672;23.354;2023-03-11T01:36:37;92461.50;;;12.25;79.90
11692;BME280;33659;42.672;23.354;2023-03-11T01:39:03;92458.84;;;12.29;79.90
11692;BME280;33659;42.672;23.354;2023-03-11T01:41:30;92447.22;;;12.33;79.39
11692;BME280;33659;42.672;23.354;2023-03-11T01:43:57;92455.13;;;12.26;79.45
11692;BME280;33659;42.672;23.354;2023-03-11T01:46:25;92453.66;;;12.25;79.69
11692;BME280;33659;42.672;23.354;2023-03-11T01:48:55;92421.25;;;12.05;79.77
11692;BME280;33659;42.672;23.354;2023-03-11T01:51:26;92432.09;;;12.07;80.03
11692;BME280;33659;42.672;23.354;2023-03-11T01:53:54;92439.94;;;12.07;80.20
11692;BME280;33659;42.672;23.354;2023-03-11T01:56:22;92442.53;;;12.07;80.25
11692;BME280;33659;42.672;23.354;2023-03-11T01:58:50;92452.28;;;12.03;80.54
11692;BME280;33659;42.672;23.354;2023-03-11T02:01:18;92474.38;;;11.95;81.21
11692;BME280;33659;42.672;23.354;2023-03-11T02:03:46;92468.81;;;11.78;81.87
11692;BME280;33659;42.672;23.354;2023-03-11T02:06:18;92463.59;;;11.75;82.41
11692;BME280;33659;42.672;23.354;2023-03-11T02:08:46;92455.09;;;11.60;82.60
11692;BME280;33659;42.672;23.354;2023-03-11T02:11:16;92479.69;;;11.70;82.77
11692;BME280;33659;42.672;23.354;2023-03-11T02:13:45;92477.09;;;11.66;82.74
11692;BME280;33659;42.672;23.354;2023-03-11T02:16:12;92489.78;;;11.68;82.58
11692;BME280;33659;42.672;23.354;2023-03-11T02:18:39;92487.13;;;11.71;82.28
11692;BME280;33659;42.672;23.354;2023-03-11T02:21:14;92494.25;;;11.74;81.63
11692;BME280;33659;42.672;23.354;2023-03-11T02:23:48;92500.94;;;11.72;81.73
11692;BME280;33659;42.672;23.354;2023-03-11T02:26:20;92511.06;;;11.73;81.45
11692;BME280;33659;42.672;23.354;2023-03-11T02:28:49;92502.09;;;11.74;81.34
11692;BME280;33659;42.672;23.354;2023-03-11T02:31:16;92490.53;;;11.68;81.38
11692;BME280;33659;42.672;23.354;2023-03-11T02:33:44;92509.97;;;11.60;81.68
11692;BME280;33659;42.672;23.354;2023-03-11T02:36:32;92504.03;;;11.45;82.61
11692;BME280;33659;42.672;23.354;2023-03-11T02:38:59;92501.41;;;11.49;82.47
11692;BME280;33659;42.672;23.354;2023-03-11T02:41:26;92500.25;;;11.57;82.30
11692;BME280;33659;42.672;23.354;2023-03-11T02:43:55;92496.50;;;11.65;81.50
11692;BME280;33659;42.672;23.354;2023-03-11T02:46:22;92497.25;;;11.65;81.19
11692;BME280;33659;42.672;23.354;2023-03-11T02:48:50;92485.31;;;11.57;80.82
11692;BME280;33659;42.672;23.354;2023-03-11T02:51:17;92507.69;;;11.73;79.76
11692;BME280;33659;42.672;23.354;2023-03-11T02:53:46;92510.28;;;11.80;79.84
11692;BME280;33659;42.672;23.354;2023-03-11T02:56:14;92515.50;;;11.76;80.61
11692;BME280;33659;42.672;23.354;2023-03-11T02:58:41;92516.72;;;11.54;81.62
11692;BME280;33659;42.672;23.354;2023-03-11T03:01:09;92504.09;;;11.24;82.67
11692;BME280;33659;42.672;23.354;2023-03-11T03:03:36;92510.06;;;11.24;83.22
11692;BME280;33659;42.672;23.354;2023-03-11T03:06:03;92510.09;;;10.96;84.95
11692;BME280;33659;42.672;23.354;2023-03-11T03:08:30;92510.09;;;10.74;86.17
11692;BME280;33659;42.672;23.354;2023-03-11T03:10:56;92512.31;;;10.62;86.90
11692;BME280;33659;42.672;23.354;2023-03-11T03:13:24;92513.81;;;10.55;87.55
11692;BME280;33659;42.672;23.354;2023-03-11T03:15:51;92518.28;;;10.51;87.71
11692;BME280;33659;42.672;23.354;2023-03-11T03:18:19;92520.13;;;10.47;87.87
11692;BME280;33659;42.672;23.354;2023-03-11T03:20:46;92522.03;;;10.50;88.35
11692;BME280;33659;42.672;23.354;2023-03-11T03:23:12;92522.00;;;10.61;88.69
11692;BME280;33659;42.672;23.354;2023-03-11T03:25:41;92519.41;;;10.75;88.44
11692;BME280;33659;42.672;23.354;2023-03-11T03:28:07;92517.53;;;10.87;87.63
11692;BME280;33659;42.672;23.354;2023-03-11T03:30:34;92518.28;;;11.05;86.67
11692;BME280;33659;42.672;23.354;2023-03-11T03:33:00;92516.03;;;11.21;86.17
11692;BME280;33659;42.672;23.354;2023-03-11T03:35:29;92525.72;;;11.35;85.33
11692;BME280;33659;42.672;23.354;2023-03-11T03:37:55;92523.06;;;11.46;83.94
11692;BME280;33659;42.672;23.354;2023-03-11T03:40:22;92518.97;;;11.45;83.01
11692;BME280;33659;42.672;23.354;2023-03-11T03:42:49;92508.50;;;11.45;83.17
11692;BME280;33659;42.672;23.354;2023-03-11T03:45:16;92515.25;;;11.42;83.54
11692;BME280;33659;42.672;23.354;2023-03-11T03:47:42;92509.25;;;11.49;83.75
11692;BME280;33659;42.672;23.354;2023-03-11T03:50:11;92492.13;;;11.41;82.91
11692;BME280;33659;42.672;23.354;2023-03-11T03:52:39;92510.72;;;11.57;82.96
11692;BME280;33659;42.672;23.354;2023-03-11T03:55:06;92508.84;;;11.61;82.95
11692;BME280;33659;42.672;23.354;2023-03-11T03:57:33;92497.25;;;11.69;82.86
11692;BME280;33659;42.672;23.354;2023-03-11T03:59:59;92505.81;;;11.73;82.38
11692;BME280;33659;42.672;23.354;2023-03-11T04:02:26;92501.72;;;11.72;81.80
11692;BME280;33659;42.672;23.354;2023-03-11T04:04:53;92510.66;;;11.71;82.41
11692;BME280;33659;42.672;23.354;2023-03-11T04:07:19;92511.09;;;11.66;82.36
11692;BME280;33659;42.672;23.354;2023-03-11T04:09:47;92498.75;;;11.63;82.86
11692;BME280;33659;42.672;23.354;2023-03-11T04:12:15;92497.25;;;11.62;82.95
11692;BME280;33659;42.672;23.354;2023-03-11T04:14:42;92500.66;;;11.52;80.40
11692;BME280;33659;42.672;23.354;2023-03-11T04:17:10;92514.81;;;11.58;79.76
11692;BME280;33659;42.672;23.354;2023-03-11T04:19:37;92501.03;;;11.54;80.14
11692;BME280;33659;42.672;23.354;2023-03-11T04:22:03;92502.56;;;11.41;80.85
11692;BME280;33659;42.672;23.354;2023-03-11T04:24:30;92516.75;;;11.32;77.58
11692;BME280;33659;42.672;23.354;2023-03-11T04:26:58;92521.97;;;11.39;74.23
11692;BME280;33659;42.672;23.354;2023-03-11T04:29:25;92518.94;;;11.55;70.28
11692;BME280;33659;42.672;23.354;2023-03-11T04:31:51;92528.63;;;11.58;67.75
11692;BME280;33659;42.672;23.354;2023-03-11T04:34:18;92539.81;;;11.70;66.50
11692;BME280;33659;42.672;23.354;2023-03-11T04:36:44;92534.56;;;11.77;66.54
11692;BME280;33659;42.672;23.354;2023-03-11T04:39:11;92535.31;;;11.84;64.88
11692;BME280;33659;42.672;23.354;2023-03-11T04:41:38;92521.84;;;11.93;64.19
11692;BME280;33659;42.672;23.354;2023-03-11T04:44:06;92524.06;;;11.95;65.14
11692;BME280;33659;42.672;23.354;2023-03-11T04:46:32;92525.91;;;12.05;65.20
11692;BME280;33659;42.672;23.354;2023-03-11T04:48:59;92516.88;;;12.09;64.25
11692;BME280;33659;42.672;23.354;2023-03-11T04:51:26;92524.34;;;12.14;65.12
11692;BME280;33659;42.672;23.354;2023-03-11T04:53:52;92516.53;;;12.11;63.75
11692;BME280;33659;42.672;23.354;2023-03-11T04:56:19;92510.56;;;12.07;63.44
11692;BME280;33659;42.672;23.354;2023-03-11T04:58:46;92527.03;;;12.00;63.69
11692;BME280;33659;42.672;23.354;2023-03-11T05:01:14;92530.41;;;11.97;63.84
11692;BME280;33659;42.672;23.354;2023-03-11T05:03:41;92542.00;;;11.96;63.43
11692;BME280;33659;42.672;23.354;2023-03-11T05:06:07;92541.22;;;12.03;63.90
11692;BME280;33659;42.672;23.354;2023-03-11T05:08:34;92549.44;;;12.05;63.35
11692;BME280;33659;42.672;23.354;2023-03-11T05:11:01;92553.53;;;12.06;62.43
11692;BME280;33659;42.672;23.354;2023-03-11T05:13:28;92543.44;;;12.08;62.55
11692;BME280;33659;42.672;23.354;2023-03-11T05:15:55;92569.25;;;12.06;62.95
11692;BME280;33659;42.672;23.354;2023-03-11T05:18:23;92563.66;;;12.00;62.04
11692;BME280;33659;42.672;23.354;2023-03-11T05:20:49;92558.41;;;11.97;62.56
11692;BME280;33659;42.672;23.354;2023-03-11T05:23:17;92555.09;;;11.92;62.79
11692;BME280;33659;42.672;23.354;2023-03-11T05:25:44;92554.34;;;11.88;63.29
11692;BME280;33659;42.672;23.354;2023-03-11T05:28:11;92574.53;;;11.91;62.90
11692;BME280;33659;42.672;23.354;2023-03-11T05:30:37;92571.16;;;11.87;62.27
11692;BME280;33659;42.672;23.354;2023-03-11T05:33:04;92611.50;;;11.90;62.31
11692;BME280;33659;42.672;23.354;2023-03-11T05:35:32;92586.88;;;11.87;61.76
11692;BME280;33659;42.672;23.354;2023-03-11T05:37:58;92580.13;;;11.90;62.45
11692;BME280;33659;42.672;23.354;2023-03-11T05:40:25;92568.16;;;11.92;62.54
11692;BME280;33659;42.672;23.354;2023-03-11T05:42:52;92585.72;;;11.96;62.66
11692;BME280;33659;42.672;23.354;2023-03-11T05:45:19;92577.88;;;11.96;62.73
11692;BME280;33659;42.672;23.354;2023-03-11T05:47:45;92591.66;;;12.07;62.41
11692;BME280;33659;42.672;23.354;2023-03-11T05:50:12;92592.03;;;12.05;62.48
11692;BME280;33659;42.672;23.354;2023-03-11T05:52:40;92598.00;;;12.13;62.62
11692;BME280;33659;42.672;23.354;2023-03-11T05:55:08;92607.31;;;12.14;62.51
11692;BME280;33659;42.672;23.354;2023-03-11T05:57:36;92608.09;;;12.11;62.28
11692;BME280;33659;42.672;23.354;2023-03-11T06:00:04;92602.13;;;12.07;63.47
11692;BME280;33659;42.672;23.354;2023-03-11T06:02:31;92605.47;;;12.07;64.12
11692;BME280;33659;42.672;23.354;2023-03-11T06:04:58;92622.69;;;12.05;65.28
11692;BME280;33659;42.672;23.354;2023-03-11T06:07:25;92588.31;;;11.99;63.81
11692;BME280;33659;42.672;23.354;2023-03-11T06:09:53;92619.63;;;12.17;65.84
11692;BME280;33659;42.672;23.354;2023-03-11T06:12:19;92595.75;;;12.08;65.27
11692;BME280;33659;42.672;23.354;2023-03-11T06:14:46;92625.22;;;12.23;64.06
11692;BME280;33659;42.672;23.354;2023-03-11T06:17:13;92624.91;;;12.13;64.43
11692;BME280;33659;42.672;23.354;2023-03-11T06:19:40;92632.72;;;12.17;64.98
11692;BME280;33659;42.672;23.354;2023-03-11T06:22:06;92633.84;;;12.16;65.30
11692;BME280;33659;42.672;23.354;2023-03-11T06:24:33;92631.63;;;12.18;65.25
11692;BME280;33659;42.672;23.354;2023-03-11T06:27:01;92629.34;;;12.20;66.47
11692;BME280;33659;42.672;23.354;2023-03-11T06:29:28;92618.09;;;12.37;66.66
11692;BME280;33659;42.672;23.354;2023-03-11T06:31:55;92625.56;;;12.35;66.58
11692;BME280;33659;42.672;23.354;2023-03-11T06:34:21;92616.22;;;12.38;66.26
11692;BME280;33659;42.672;23.354;2023-03-11T06:36:49;92638.25;;;12.40;64.99
11692;BME280;33659;42.672;23.354;2023-03-11T06:39:15;92619.22;;;12.33;65.17
11692;BME280;33659;42.672;23.354;2023-03-11T06:41:42;92629.34;;;12.27;65.44
11692;BME280;33659;42.672;23.354;2023-03-11T06:44:10;92617.38;;;12.23;65.58
11692;BME280;33659;42.672;23.354;2023-03-11T06:46:37;92625.25;;;12.19;65.50
11692;BME280;33659;42.672;23.354;2023-03-11T06:49:04;92612.94;;;12.09;65.63
11692;BME280;33659;42.672;23.354;2023-03-11T06:51:31;92626.38;;;12.14;66.08
11692;BME280;33659;42.672;23.354;2023-03-11T06:53:58;92636.09;;;12.10;64.85
11692;BME280;33659;42.672;23.354;2023-03-11T06:56:25;92615.59;;;12.05;65.12
11692;BME280;33659;42.672;23.354;2023-03-11T06:58:52;92635.00;;;12.08;64.53
11692;BME280;33659;42.672;23.354;2023-03-11T07:01:21;92610.69;;;12.18;64.59
11692;BME280;33659;42.672;23.354;2023-03-11T07:03:49;92658.53;;;12.15;63.67
11692;BME280;33659;42.672;23.354;2023-03-11T07:06:18;92634.22;;;12.25;63.60
11692;BME280;33659;42.672;23.354;2023-03-11T07:08:46;92625.97;;;12.23;63.83
11692;BME280;33659;42.672;23.354;2023-03-11T07:11:15;92635.66;;;12.30;62.61
11692;BME280;33659;42.672;23.354;2023-03-11T07:13:42;92638.34;;;12.19;65.12
11692;BME280;33659;42.672;23.354;2023-03-11T07:16:10;92639.81;;;12.20;64.64
11692;BME280;33659;42.672;23.354;2023-03-11T07:18:41;92634.56;;;12.27;64.99
11692;BME280;33659;42.672;23.354;2023-03-11T07:21:09;92633.41;;;12.39;65.19
11692;BME280;33659;42.672;23.354;2023-03-11T07:23:37;92620.28;;;12.50;64.06
11692;BME280;33659;42.672;23.354;2023-03-11T07:26:04;92633.28;;;12.64;64.17
11692;BME280;33659;42.672;23.354;2023-03-11T07:28:33;92620.56;;;12.69;63.26
11692;BME280;33659;42.672;23.354;2023-03-11T07:31:05;92625.41;;;12.71;62.28
11692;BME280;33659;42.672;23.354;2023-03-11T07:33:32;92596.63;;;12.64;62.63
11692;BME280;33659;42.672;23.354;2023-03-11T07:36:04;92607.50;;;12.59;62.60
11692;BME280;33659;42.672;23.354;2023-03-11T07:38:31;92596.72;;;12.50;63.27
11692;BME280;33659;42.672;23.354;2023-03-11T07:40:58;92594.13;;;12.42;63.61
11692;BME280;33659;42.672;23.354;2023-03-11T07:43:25;92591.88;;;12.44;63.62
11692;BME280;33659;42.672;23.354;2023-03-11T07:45:52;92601.69;;;12.26;61.54
11692;BME280;33659;42.672;23.354;2023-03-11T07:48:26;92584.47;;;12.29;60.88
11692;BME280;33659;42.672;23.354;2023-03-11T07:51:00;92595.72;;;12.15;61.49
11692;BME280;33659;42.672;23.354;2023-03-11T07:53:27;92583.00;;;12.24;61.53
11692;BME280;33659;42.672;23.354;2023-03-11T07:55:54;92577.78;;;12.24;61.31
11692;BME280;33659;42.672;23.354;2023-03-11T07:58:21;92583.31;;;12.33;61.22
11692;BME280;33659;42.672;23.354;2023-03-11T08:00:48;92569.84;;;12.38;61.15
11692;BME280;33659;42.672;23.354;2023-03-11T08:03:14;92570.94;;;12.41;61.60
11692;BME280;33659;42.672;23.354;2023-03-11T08:05:41;92553.31;;;12.48;61.75
11692;BME280;33659;42.672;23.354;2023-03-11T08:08:09;92558.16;;;12.57;61.99
11692;BME280;33659;42.672;23.354;2023-03-11T08:10:36;92568.53;;;12.68;61.72
11692;BME280;33659;42.672;23.354;2023-03-11T08:13:02;92539.69;;;12.75;61.39
11692;BME280;33659;42.672;23.354;2023-03-11T08:15:29;92503.47;;;12.66;61.57
11692;BME280;33659;42.672;23.354;2023-03-11T08:17:56;92496.81;;;12.58;60.10
11692;BME280;33659;42.672;23.354;2023-03-11T08:20:23;92528.69;;;12.98;61.13
11692;BME280;33659;42.672;23.354;2023-03-11T08:22:49;92523.31;;;13.12;59.69
11692;BME280;33659;42.672;23.354;2023-03-11T08:25:18;92525.13;;;13.19;56.42
11692;BME280;33659;42.672;23.354;2023-03-11T08:27:44;92516.56;;;13.15;57.27
11692;BME280;33659;42.672;23.354;2023-03-11T08:30:12;92539.72;;;13.20;57.13
11692;BME280;33659;42.672;23.354;2023-03-11T08:32:39;92503.78;;;13.24;56.00
11692;BME280;33659;42.672;23.354;2023-03-11T08:35:06;92509.06;;;13.20;56.07
11692;BME280;33659;42.672;23.354;2023-03-11T08:37:32;92496.28;;;13.19;55.71
11692;BME280;33659;42.672;23.354;2023-03-11T08:39:59;92506.03;;;13.18;56.07
11692;BME280;33659;42.672;23.354;2023-03-11T08:42:27;92492.09;;;13.32;56.44
11692;BME280;33659;42.672;23.354;2023-03-11T08:44:54;92522.47;;;13.26;56.17
11692;BME280;33659;42.672;23.354;2023-03-11T08:47:20;92514.63;;;13.19;55.88
11692;BME280;33659;42.672;23.354;2023-03-11T08:49:47;92480.22;;;13.20;55.79
11692;BME280;33659;42.672;23.354;2023-03-11T08:52:14;92476.81;;;13.20;54.85
11692;BME280;33659;42.672;23.354;2023-03-11T08:54:40;92512.72;;;13.26;54.20
11692;BME280;33659;42.672;23.354;2023-03-11T08:57:08;92528.41;;;13.34;53.63
11692;BME280;33659;42.672;23.354;2023-03-11T08:59:36;92484.94;;;13.36;53.70
11692;BME280;33659;42.672;23.354;2023-03-11T09:02:02;92482.72;;;13.35;54.18
11692;BME280;33659;42.672;23.354;2023-03-11T09:04:29;92475.53;;;13.39;55.00
11692;BME280;33659;42.672;23.354;2023-03-11T09:06:56;92475.00;;;13.54;55.13
11692;BME280;33659;42.672;23.354;2023-03-11T09:09:22;92505.59;;;13.65;54.35
11692;BME280;33659;42.672;23.354;2023-03-11T09:11:49;92466.47;;;13.81;54.21
11692;BME280;33659;42.672;23.354;2023-03-11T09:14:16;92452.91;;;13.86;53.43
11692;BME280;33659;42.672;23.354;2023-03-11T09:16:44;92479.88;;;13.87;53.38
11692;BME280;33659;42.672;23.354;2023-03-11T09:19:10;92476.25;;;13.77;53.23
11692;BME280;33659;42.672;23.354;2023-03-11T09:21:37;92438.47;;;13.71;53.24
11692;BME280;33659;42.672;23.354;2023-03-11T09:24:04;92443.38;;;13.69;53.73
11692;BME280;33659;42.672;23.354;2023-03-11T09:26:32;92507.09;;;13.66;53.54
11692;BME280;33659;42.672;23.354;2023-03-11T09:28:58;92463.22;;;13.70;54.31
11692;BME280;33659;42.672;23.354;2023-03-11T09:31:25;92452.28;;;13.75;54.63
11692;BME280;33659;42.672;23.354;2023-03-11T09:33:53;92472.53;;;13.74;54.95
11692;BME280;33659;42.672;23.354;2023-03-11T09:36:21;92478.09;;;13.80;55.43
11692;BME280;33659;42.672;23.354;2023-03-11T09:38:48;92478.34;;;13.89;54.82
11692;BME280;33659;42.672;23.354;2023-03-11T09:41:23;92472.13;;;14.06;54.92
11692;BME280;33659;42.672;23.354;2023-03-11T09:44:05;92442.84;;;14.12;53.67
11692;BME280;33659;42.672;23.354;2023-03-11T09:46:56;92479.47;;;14.19;53.03
11692;BME280;33659;42.672;23.354;2023-03-11T09:49:32;92463.09;;;14.38;52.02
11692;BME280;33659;42.672;23.354;2023-03-11T09:52:05;92456.50;;;14.53;52.15
11692;BME280;33659;42.672;23.354;2023-03-11T09:54:38;92438.19;;;14.73;51.99
11692;BME280;33659;42.672;23.354;2023-03-11T09:57:11;92424.59;;;14.78;50.80
11692;BME280;33659;42.672;23.354;2023-03-11T09:59:40;92486.91;;;14.78;48.45
11692;BME280;33659;42.672;23.354;2023-03-11T10:02:11;92467.25;;;14.62;48.49
11692;BME280;33659;42.672;23.354;2023-03-11T10:04:44;92524.41;;;14.82;47.84
11692;BME280;33659;42.672;23.354;2023-03-11T10:07:16;92466.13;;;14.87;47.34
11692;BME280;33659;42.672;23.354;2023-03-11T10:09:49;92445.38;;;14.93;46.13
11692;BME280;33659;42.672;23.354;2023-03-11T10:12:31;92470.44;;;15.21;46.75
11692;BME280;33659;42.672;23.354;2023-03-11T10:15:16;92456.78;;;15.49;47.04
11692;BME280;33659;42.672;23.354;2023-03-11T10:17:55;92456.91;;;15.65;46.93
11692;BME280;33659;42.672;23.354;2023-03-11T10:20:34;92466.66;;;15.85;44.76
11692;BME280;33659;42.672;23.354;2023-03-11T10:23:11;92464.97;;;15.75;44.76
11692;BME280;33659;42.672;23.354;2023-03-11T10:25:48;92450.66;;;15.76;46.25
11692;BME280;33659;42.672;23.354;2023-03-11T10:28:20;92459.56;;;15.82;45.01
11692;BME280;33659;42.672;23.354;2023-03-11T10:30:51;92457.53;;;15.89;45.23
11692;BME280;33659;42.672;23.354;2023-03-11T10:33:23;92444.25;;;15.77;45.62
11692;BME280;33659;42.672;23.354;2023-03-11T10:35:55;92426.38;;;15.68;46.38
11692;BME280;33659;42.672;23.354;2023-03-11T10:38:26;92490.38;;;15.41;46.54
11692;BME280;33659;42.672;23.354;2023-03-11T10:40:57;92472.56;;;15.06;47.43
11692;BME280;33659;42.672;23.354;2023-03-11T10:43:28;92470.41;;;14.77;47.64
11692;BME280;33659;42.672;23.354;2023-03-11T10:45:57;92446.59;;;14.65;48.43
11692;BME280;33659;42.672;23.354;2023-03-11T10:48:25;92455.44;;;14.51;48.58
11692;BME280;33659;42.672;23.354;2023-03-11T10:50:56;92506.25;;;14.37;48.08
11692;BME280;33659;42.672;23.354;2023-03-11T10:53:26;92439.31;;;14.22;50.96
11692;BME280;33659;42.672;23.354;2023-03-11T10:55:55;92474.44;;;14.04;52.20
11692;BME280;33659;42.672;23.354;2023-03-11T10:58:23;92498.06;;;13.70;52.54
11692;BME280;33659;42.672;23.354;2023-03-11T11:01:03;92468.97;;;13.58;52.82
11692;BME280;33659;42.672;23.354;2023-03-11T11:03:32;92479.53;;;13.50;53.81
11692;BME280;33659;42.672;23.354;2023-03-11T11:06:04;92477.22;;;13.60;54.77
11692;BME280;33659;42.672;23.354;2023-03-11T11:08:32;92470.63;;;13.78;54.29
11692;BME280;33659;42.672;23.354;2023-03-11T11:11:01;92500.03;;;13.93;52.36
11692;BME280;33659;42.672;23.354;2023-03-11T11:13:30;92483.28;;;14.14;51.88
11692;BME280;33659;42.672;23.354;2023-03-11T11:16:00;92460.72;;;14.47;51.48
11692;BME280;33659;42.672;23.354;2023-03-11T11:18:29;92462.94;;;14.76;51.58
11692;BME280;33659;42.672;23.354;2023-03-11T11:21:03;92463.16;;;15.08;51.82
11692;BME280;33659;42.672;23.354;2023-03-11T11:23:37;92451.63;;;15.22;50.66
11692;BME280;33659;42.672;23.354;2023-03-11T11:26:09;92447.59;;;15.17;51.31
11692;BME280;33659;42.672;23.354;2023-03-11T11:28:40;92445.72;;;14.95;50.46
11692;BME280;33659;42.672;23.354;2023-03-11T11:31:19;92437.16;;;14.90;51.32
11692;BME280;33659;42.672;23.354;2023-03-11T11:33:50;92437.44;;;14.73;52.04
11692;BME280;33659;42.672;23.354;2023-03-11T11:36:21;92446.44;;;14.75;51.93
11692;BME280;33659;42.672;23.354;2023-03-11T11:38:50;92453.22;;;14.73;51.38
11692;BME280;33659;42.672;23.354;2023-03-11T11:41:20;92431.59;;;14.61;50.04
11692;BME280;33659;42.672;23.354;2023-03-11T11:43:50;92450.28;;;14.67;49.95
11692;BME280;33659;42.672;23.354;2023-03-11T11:46:24;92415.28;;;14.74;49.94
11692;BME280;33659;42.672;23.354;2023-03-11T11:49:02;92425.22;;;14.86;49.74
11692;BME280;33659;42.672;23.354;2023-03-11T11:51:36;92398.44;;;14.95;48.88
11692;BME280;33659;42.672;23.354;2023-03-11T11:54:13;92406.13;;;15.05;48.63
11692;BME280;33659;42.672;23.354;2023-03-11T11:56:41;92409.50;;;15.26;48.28
11692;BME280;33659;42.672;23.354;2023-03-11T11:59:14;92392.59;;;15.66;47.84
11692;BME280;33659;42.672;23.354;2023-03-11T12:01:48;92388.66;;;16.11;46.55
11692;BME280;33659;42.672;23.354;2023-03-11T12:04:28;92399.78;;;16.18;45.73
11692;BME280;33659;42.672;23.354;2023-03-11T12:07:06;92388.50;;;16.18;45.97
11692;BME280;33659;42.672;23.354;2023-03-11T12:09:41;92384.53;;;16.26;46.45
11692;BME280;33659;42.672;23.354;2023-03-11T12:12:20;92397.31;;;16.44;44.81
11692;BME280;33659;42.672;23.354;2023-03-11T12:14:54;92395.50;;;16.57;42.71
11692;BME280;33659;42.672;23.354;2023-03-11T12:17:24;92386.50;;;16.87;40.91
11692;BME280;33659;42.672;23.354;2023-03-11T12:19:56;92413.91;;;17.06;39.82
11692;BME280;33659;42.672;23.354;2023-03-11T12:22:54;92369.94;;;16.87;40.65
11692;BME280;33659;42.672;23.354;2023-03-11T12:25:27;92378.03;;;16.79;40.55
11692;BME280;33659;42.672;23.354;2023-03-11T12:28:02;92381.13;;;17.07;40.32
11692;BME280;33659;42.672;23.354;2023-03-11T12:30:36;92379.59;;;17.22;40.58
11692;BME280;33659;42.672;23.354;2023-03-11T12:33:12;92402.09;;;17.27;40.80
11692;BME280;33659;42.672;23.354;2023-03-11T12:35:47;92406.41;;;17.04;40.20
11692;BME280;33659;42.672;23.354;2023-03-11T12:38:17;92430.06;;;16.59;42.01
11692;BME280;33659;42.672;23.354;2023-03-11T12:40:59;92404.13;;;16.41;42.76
11692;BME280;33659;42.672;23.354;2023-03-11T12:43:57;92356.81;;;16.05;44.24
11692;BME280;33659;42.672;23.354;2023-03-11T12:46:58;92430.38;;;16.12;44.10
11692;BME280;33659;42.672;23.354;2023-03-11T12:49:26;92405.16;;;15.95;44.69
11692;BME280;33659;42.672;23.354;2023-03-11T12:52:15;92374.47;;;15.88;44.81
11692;BME280;33659;42.672;23.354;2023-03-11T12:54:44;92398.31;;;15.81;45.62
11692;BME280;33659;42.672;23.354;2023-03-11T12:57:28;92392.13;;;15.72;46.00
11692;BME280;33659;42.672;23.354;2023-03-11T13:00:21;92408.72;;;15.68;46.41